Time;durP1;ratioP1;P1;durP2;ratioP2;P2;SDS_P1;SDS_P2;PMS_P1;PMS_P2;Temp;Humidity;BMP_temperature;BMP_pressure;BME280_temperature;BME280_humidity;BME280_pressure;Samples;Min_cycle;Max_cycle;Signal;HPM_P1;HPM_P2
2022/02/07 00:00:17;;;;;;;12.20;2.20;;;;;;;4.18;100.00;100175.34;4978243;28;20428;-71
2022/02/07 00:03:02;;;;;;;8.97;2.30;;;;;;;4.28;100.00;100194.56;4977865;28;20452;-72
2022/02/07 00:05:29;;;;;;;12.07;2.67;;;;;;;4.20;100.00;100210.53;4980983;28;20433;-71
2022/02/07 00:07:56;;;;;;;12.30;2.30;;;;;;;4.34;100.00;100201.00;4982237;28;21922;-72
2022/02/07 00:10:22;;;;;;;20.57;2.90;;;;;;;4.48;100.00;100199.44;4956516;28;20983;-71
2022/02/07 00:12:48;;;;;;;6.60;1.97;;;;;;;4.38;100.00;100204.97;4980072;28;20575;-72
2022/02/07 00:15:15;;;;;;;13.63;3.07;;;;;;;4.39;100.00;100213.75;4977658;28;20503;-71
2022/02/07 00:17:40;;;;;;;11.03;2.40;;;;;;;4.42;100.00;100230.16;4975643;28;20217;-71
2022/02/07 00:20:12;;;;;;;5.17;1.63;;;;;;;4.35;100.00;100226.56;4966093;28;20452;-71
2022/02/07 00:22:37;;;;;;;8.67;2.10;;;;;;;4.56;100.00;100220.63;4981129;28;20284;-70
2022/02/07 00:25:03;;;;;;;9.77;2.23;;;;;;;4.46;100.00;100234.13;4979952;28;20536;-72
2022/02/07 00:27:29;;;;;;;6.43;1.73;;;;;;;4.08;100.00;100158.84;4979742;28;20221;-71
2022/02/07 00:29:54;;;;;;;7.70;2.10;;;;;;;4.37;100.00;100245.81;4983084;28;20907;-72
2022/02/07 00:32:19;;;;;;;11.23;1.93;;;;;;;4.13;100.00;100240.56;4982221;28;20233;-72
2022/02/07 00:34:45;;;;;;;7.87;2.30;;;;;;;4.25;100.00;100263.09;4960327;28;20217;-71
2022/02/07 00:37:10;;;;;;;13.87;2.73;;;;;;;4.27;100.00;100261.94;4978255;28;20228;-71
2022/02/07 00:39:44;;;;;;;15.30;2.60;;;;;;;4.08;100.00;100227.84;4978481;28;20193;-70
2022/02/07 00:42:19;;;;;;;7.47;2.40;;;;;;;4.46;100.00;100251.91;4981305;28;20182;-72
2022/02/07 00:44:46;;;;;;;14.83;2.73;;;;;;;4.61;100.00;100278.56;4980839;28;20443;-71
2022/02/07 00:47:11;;;;;;;13.03;2.43;;;;;;;4.72;100.00;100292.28;4983880;28;20886;-71
2022/02/07 00:49:37;;;;;;;19.10;3.97;;;;;;;4.63;100.00;100316.38;4986079;28;20476;-72
2022/02/07 00:52:03;;;;;;;14.30;2.20;;;;;;;4.16;100.00;100256.97;4985242;28;20284;-71
2022/02/07 00:54:28;;;;;;;8.37;2.13;;;;;;;4.41;100.00;100310.00;4979725;28;20197;-71
2022/02/07 00:56:54;;;;;;;12.00;1.60;;;;;;;4.45;100.00;100320.09;4979296;28;20487;-71
2022/02/07 00:59:19;;;;;;;6.50;1.77;;;;;;;4.33;100.00;100326.78;4964730;28;20193;-70
2022/02/07 01:01:45;;;;;;;7.20;1.63;;;;;;;4.30;100.00;100322.66;4982568;28;20277;-71
2022/02/07 01:04:10;;;;;;;5.57;1.30;;;;;;;4.52;100.00;100338.84;4979783;28;21062;-71
2022/02/07 01:06:35;;;;;;;8.57;1.83;;;;;;;4.41;100.00;100317.97;4979656;28;20220;-71
2022/02/07 01:14:17;;;;;;;11.70;2.70;;;;;;;4.64;100.00;100350.75;4978614;28;20447;-70
2022/02/07 01:17:11;;;;;;;12.43;2.20;;;;;;;4.92;100.00;100387.53;4979650;28;20472;-71
2022/02/07 01:49:37;;;;;;;20.83;3.47;;;;;;;5.27;100.00;100494.38;4976391;28;20962;-71
2022/02/07 01:52:10;;;;;;;12.30;3.57;;;;;;;5.19;100.00;100503.22;4982327;28;20433;-71
2022/02/07 01:57:04;;;;;;;18.83;3.43;;;;;;;5.18;100.00;100513.03;4980540;28;20851;-71
2022/02/07 01:59:30;;;;;;;15.30;2.63;;;;;;;4.96;100.00;100480.00;4975489;28;21554;-71
2022/02/07 02:01:55;;;;;;;13.20;3.17;;;;;;;5.24;100.00;100526.63;4981620;28;20519;-71
2022/02/07 02:04:20;;;;;;;12.30;3.37;;;;;;;5.18;100.00;100531.63;4975949;28;20259;-71
2022/02/07 02:06:46;;;;;;;16.30;2.90;;;;;;;4.90;100.00;100495.81;4977137;28;20248;-71
2022/02/07 02:09:13;;;;;;;14.87;3.63;;;;;;;5.20;100.00;100524.28;4981525;28;20219;-71
2022/02/07 02:11:40;;;;;;;16.57;3.70;;;;;;;5.41;100.00;100578.78;4973891;28;20189;-71
2022/02/07 02:35:53;;;;;;;18.83;3.80;;;;;;;5.17;100.00;100583.13;4976720;28;20542;-69
2022/02/07 02:38:25;;;;;;;20.13;4.00;;;;;;;5.41;100.00;100639.94;4980221;28;20988;-70
2022/02/07 02:46:23;;;;;;;16.07;4.10;;;;;;;5.09;100.00;100599.13;4974315;28;20677;-70
2022/02/07 02:48:48;;;;;;;14.73;3.20;;;;;;;5.28;100.00;100652.94;4975514;28;20529;-70
2022/02/07 02:51:15;;;;;;;13.00;3.90;;;;;;;5.13;100.00;100635.00;4976720;28;20448;-70
2022/02/07 02:53:41;;;;;;;14.50;3.80;;;;;;;5.26;100.00;100698.28;4978501;28;20189;-71
2022/02/07 02:56:06;;;;;;;18.00;3.67;;;;;;;4.98;100.00;100640.16;4973167;28;20523;-70
2022/02/07 02:58:32;;;;;;;10.43;3.27;;;;;;;5.39;100.00;100690.66;4978837;28;20590;-70
2022/02/07 03:00:57;;;;;;;17.00;4.00;;;;;;;5.33;100.00;100696.63;4963712;28;20426;-70
2022/02/07 03:03:23;;;;;;;11.27;3.17;;;;;;;5.37;100.00;100687.31;4982989;28;20204;-70
2022/02/07 03:05:49;;;;;;;15.00;2.87;;;;;;;5.50;100.00;100734.69;4981942;28;20209;-70
2022/02/07 03:08:18;;;;;;;24.83;4.40;;;;;;;5.57;100.00;100734.84;4983083;28;20233;-70
2022/02/07 03:13:17;;;;;;;12.90;3.63;;;;;;;5.56;100.00;100755.31;4982124;28;20883;-71
2022/02/07 03:18:28;;;;;;;26.43;4.27;;;;;;;5.43;100.00;100725.72;4969712;28;20491;-80
2022/02/07 03:20:54;;;;;;;16.53;3.07;;;;;;;5.60;100.00;100753.13;4953785;28;20440;-78
2022/02/07 03:23:20;;;;;;;21.27;3.43;;;;;;;5.67;100.00;100780.75;4974144;28;20198;-80
2022/02/07 03:25:45;;;;;;;15.07;3.57;;;;;;;5.07;100.00;100691.50;4970242;28;20445;-81
2022/02/07 03:28:11;;;;;;;17.67;4.03;;;;;;;4.62;100.00;100644.13;4954506;28;20770;-81
2022/02/07 03:30:37;;;;;;;18.13;4.23;;;;;;;4.87;100.00;100676.88;4967906;28;20452;-79
2022/02/07 03:33:04;;;;;;;22.47;4.40;;;;;;;5.62;100.00;100804.34;4969889;28;20194;-80
2022/02/07 03:35:30;;;;;;;14.93;3.80;;;;;;;4.34;100.00;100603.75;4970926;28;20454;-82
2022/02/07 03:37:55;;;;;;;22.80;5.70;;;;;;;3.98;100.00;100558.91;4969533;28;20950;-79
2022/02/07 03:40:21;;;;;;;22.97;4.40;;;;;;;5.65;100.00;100836.78;4968698;28;20209;-80
2022/02/07 03:42:47;;;;;;;21.30;3.90;;;;;;;5.50;100.00;100806.53;4972737;28;20277;-81
2022/02/07 03:45:13;;;;;;;16.30;3.30;;;;;;;5.16;100.00;100775.59;4958226;28;20536;-81
2022/02/07 03:47:38;;;;;;;19.50;3.33;;;;;;;5.06;100.00;100743.00;4950716;28;20701;-78
2022/02/07 03:50:05;;;;;;;23.93;4.20;;;;;;;5.10;100.00;100791.38;4971184;28;20263;-81
2022/02/07 03:52:31;;;;;;;16.67;3.67;;;;;;;5.73;100.00;100891.84;4945693;28;20240;-80
2022/02/07 03:54:56;;;;;;;16.13;3.83;;;;;;;4.76;100.00;100777.16;4972321;28;20445;-78
2022/02/07 03:57:21;;;;;;;15.33;3.63;;;;;;;4.89;100.00;100773.19;4967740;28;20211;-78
2022/02/07 03:59:47;;;;;;;15.67;3.00;;;;;;;5.75;100.00;100926.28;4967808;28;20199;-77
2022/02/07 04:02:13;;;;;;;13.03;2.63;;;;;;;5.02;100.00;100805.47;4965769;28;20198;-80
2022/02/07 04:04:40;;;;;;;12.27;3.00;;;;;;;5.94;100.00;100949.13;4971061;28;20521;-79
2022/02/07 04:07:07;;;;;;;10.30;2.83;;;;;;;5.68;100.00;100960.69;4954223;28;20748;-78
2022/02/07 04:09:38;;;;;;;13.83;3.33;;;;;;;5.45;100.00;100936.53;4970270;28;20450;-79
2022/02/07 04:12:10;;;;;;;16.40;2.83;;;;;;;5.41;100.00;100973.28;4957047;28;20456;-82
2022/02/07 04:14:36;;;;;;;10.17;2.20;;;;;;;4.79;100.00;100865.53;4956773;28;20873;-82
2022/02/07 04:17:01;;;;;;;10.57;1.63;;;;;;;3.57;100.00;100705.47;4971551;28;20489;-79
2022/02/07 04:19:33;;;;;;;8.80;2.23;;;;;;;5.10;100.00;100938.44;4959083;28;20567;-80
2022/02/07 04:21:59;;;;;;;8.80;1.77;;;;;;;5.45;100.00;100992.41;4971142;28;20185;-81
2022/02/07 04:24:25;;;;;;;4.90;1.20;;;;;;;4.20;100.00;100838.88;4967065;28;20436;-81
2022/02/07 04:26:50;;;;;;;3.13;0.90;;;;;;;4.16;100.00;100819.75;4970720;28;21157;-80
2022/02/07 04:29:16;;;;;;;5.97;1.63;;;;;;;4.53;100.00;100882.38;4968934;28;20269;-79
2022/02/07 04:31:41;;;;;;;11.07;2.40;;;;;;;5.00;100.00;100948.34;4953455;28;20178;-81
2022/02/07 04:34:07;;;;;;;9.27;2.07;;;;;;;5.18;100.00;100983.69;4953905;28;20659;-80
2022/02/07 04:36:32;;;;;;;13.70;2.40;;;;;;;5.06;100.00;100963.66;4971018;28;20218;-78
2022/02/07 04:38:58;;;;;;;11.77;2.67;;;;;;;5.13;100.00;101011.72;4969929;28;20217;-79
2022/02/07 04:41:24;;;;;;;14.87;3.30;;;;;;;5.20;100.00;101015.41;4974430;28;20617;-80
2022/02/07 04:43:58;;;;;;;16.77;3.90;;;;;;;5.40;100.00;101042.59;4971237;28;20189;-80
2022/02/07 04:46:53;;;;;;;25.33;4.00;;;;;;;5.42;100.00;101072.53;4970609;28;20455;-82
2022/02/07 04:57:27;;;;;;;10.43;2.70;;;;;;;5.52;100.00;101088.38;4972102;28;20473;-82
2022/02/07 05:00:21;;;;;;;19.20;3.40;;;;;;;5.11;100.00;101027.84;4953027;28;20189;-81
2022/02/07 05:02:59;;;;;;;13.90;3.27;;;;;;;5.57;100.00;101126.81;4967860;28;20520;-81
2022/02/07 05:16:02;;;;;;;16.80;3.57;;;;;;;5.69;100.00;101190.41;4966359;28;20475;-79
2022/02/07 05:18:30;;;;;;;10.40;2.80;;;;;;;5.69;100.00;101182.44;4957040;28;20473;-80
2022/02/07 05:20:55;;;;;;;11.60;2.40;;;;;;;4.61;100.00;101030.34;4972098;28;20186;-82
2022/02/07 05:23:21;;;;;;;10.40;2.70;;;;;;;5.18;100.00;101123.78;4942378;28;20476;-82
2022/02/07 05:25:46;;;;;;;18.97;3.37;;;;;;;5.54;100.00;101174.19;4970151;28;20197;-82
2022/02/07 05:28:11;;;;;;;11.60;3.23;;;;;;;5.18;100.00;101129.94;4972870;28;20187;-83
2022/02/07 05:30:37;;;;;;;15.47;3.77;;;;;;;5.89;100.00;101219.28;4969937;28;20659;-81
2022/02/07 05:33:03;;;;;;;19.70;4.23;;;;;;;4.87;100.00;101089.66;4968350;28;20277;-80
2022/02/07 05:35:28;;;;;;;12.53;3.70;;;;;;;5.78;100.00;101256.81;4968815;28;20194;-79
2022/02/07 05:37:54;;;;;;;20.87;3.70;;;;;;;4.80;100.00;101135.63;4965878;28;20214;-79
2022/02/07 05:41:20;;;;;;;12.43;4.23;;;;;;;5.17;100.00;101169.97;4974351;28;20652;-82
2022/02/07 05:43:15;;;;;;;13.73;3.60;;;;;;;5.66;100.00;101260.75;4962573;28;20194;-83
2022/02/07 05:45:41;;;;;;;10.53;2.80;;;;;;;5.56;100.00;101260.03;4965914;28;20449;-79
2022/02/07 05:48:06;;;;;;;9.77;2.37;;;;;;;5.73;100.00;101280.44;4972682;28;20438;-84
2022/02/07 05:50:32;;;;;;;12.83;2.90;;;;;;;5.67;100.00;101281.06;4952334;28;20702;-82
2022/02/07 05:52:58;;;;;;;10.37;2.40;;;;;;;5.77;100.00;101291.59;4967228;28;20202;-84
2022/02/07 05:55:25;;;;;;;15.10;2.97;;;;;;;5.02;100.00;101180.31;4966999;28;20269;-83
2022/02/07 05:57:50;;;;;;;15.53;2.63;;;;;;;5.05;100.00;101177.34;4967782;28;21730;-81
2022/02/07 06:00:16;;;;;;;13.97;2.80;;;;;;;5.65;100.00;101301.69;4972035;28;20450;-83
2022/02/07 06:02:42;;;;;;;10.77;3.43;;;;;;;4.84;100.00;101198.13;4971587;28;20192;-83
2022/02/07 06:05:07;;;;;;;26.43;3.80;;;;;;;5.65;100.00;101331.78;4965088;28;20187;-82
2022/02/07 06:07:33;;;;;;;14.67;3.33;;;;;;;5.00;100.00;101222.16;4969277;28;20927;-83
2022/02/07 06:09:58;;;;;;;21.47;3.83;;;;;;;5.47;100.00;101312.34;4952597;28;20464;-82
2022/02/07 06:12:24;;;;;;;12.00;3.63;;;;;;;5.62;100.00;101345.41;4945636;28;20188;-80
2022/02/07 06:14:49;;;;;;;16.13;3.80;;;;;;;5.11;100.00;101267.13;4969565;28;20190;-79
2022/02/07 06:17:14;;;;;;;16.20;3.43;;;;;;;5.71;100.00;101359.59;4965342;28;20225;-82
2022/02/07 06:19:40;;;;;;;15.60;3.60;;;;;;;5.61;100.00;101350.84;4966107;28;20186;-81
2022/02/07 06:22:05;;;;;;;22.20;3.97;;;;;;;4.37;100.00;101183.22;4965124;28;20318;-84
2022/02/07 06:24:31;;;;;;;18.60;4.30;;;;;;;4.87;100.00;101227.88;4952622;28;20194;-83
2022/02/07 06:26:56;;;;;;;14.40;3.73;;;;;;;4.83;100.00;101236.31;4939112;28;20299;-82
2022/02/07 06:29:22;;;;;;;20.33;4.03;;;;;;;4.95;100.00;101237.78;4948599;28;20916;-83
2022/02/07 06:31:48;;;;;;;14.90;3.83;;;;;;;5.58;100.00;101333.41;4966556;28;20194;-81
2022/02/07 06:34:14;;;;;;;22.67;4.10;;;;;;;5.87;100.00;101388.16;4957796;28;20848;-85
2022/02/07 06:36:39;;;;;;;14.27;3.90;;;;;;;5.68;100.00;101367.91;4946302;28;20217;-82
2022/02/07 06:39:05;;;;;;;17.63;4.10;;;;;;;4.86;100.00;101246.63;4965545;28;20214;-82
2022/02/07 06:41:30;;;;;;;24.73;3.80;;;;;;;4.85;100.00;101231.69;4951887;28;20241;-83
2022/02/07 06:43:55;;;;;;;25.13;4.80;;;;;;;4.78;100.00;101220.00;4969228;28;20182;-85
2022/02/07 06:46:21;;;;;;;20.60;4.30;;;;;;;5.46;100.00;101342.59;4954947;28;20594;-87
2022/02/07 06:48:46;;;;;;;24.27;4.23;;;;;;;5.55;100.00;101394.88;4965005;28;20679;-84
2022/02/07 06:51:12;;;;;;;20.93;4.63;;;;;;;4.93;100.00;101290.25;4947648;28;20189;-85
2022/02/07 06:53:37;;;;;;;18.50;4.03;;;;;;;5.35;100.00;101402.22;4969121;28;20298;-86
2022/02/07 06:56:04;;;;;;;16.80;4.23;;;;;;;4.64;100.00;101275.31;4963420;28;20237;-85
2022/02/07 06:58:29;;;;;;;19.23;4.70;;;;;;;5.01;100.00;101355.97;4966582;28;20308;-83
2022/02/07 07:00:55;;;;;;;24.00;5.80;;;;;;;4.13;100.00;101246.66;4968481;28;20457;-84
2022/02/07 07:03:21;;;;;;;19.83;4.67;;;;;;;4.00;100.00;101202.72;4946983;28;20201;-82
2022/02/07 07:05:50;;;;;;;20.70;5.00;;;;;;;5.08;100.00;101372.97;4947077;28;20190;-83
2022/02/07 07:08:16;;;;;;;19.50;4.80;;;;;;;5.43;100.00;101462.63;4947521;28;20441;-81
2022/02/07 07:10:44;;;;;;;31.33;5.83;;;;;;;5.42;100.00;101479.59;4964201;28;20440;-80
2022/02/07 07:13:20;;;;;;;21.47;4.60;;;;;;;5.56;100.00;101463.09;4968533;28;20544;-83
2022/02/07 07:16:01;;;;;;;21.23;4.93;;;;;;;5.65;100.00;101517.25;4967370;28;20646;-81
2022/02/07 07:18:27;;;;;;;20.57;4.90;;;;;;;5.37;100.00;101452.59;4963620;28;20847;-79
2022/02/07 07:20:52;;;;;;;21.27;4.63;;;;;;;5.18;100.00;101449.06;4967820;28;20453;-83
2022/02/07 07:23:18;;;;;;;21.20;4.70;;;;;;;5.63;100.00;101500.59;4955354;28;20194;-85
2022/02/07 07:25:45;;;;;;;26.27;6.33;;;;;;;5.41;100.00;101510.69;4964180;28;20181;-86
2022/02/07 07:28:14;;;;;;;22.03;5.70;;;;;;;5.55;100.00;101530.59;4969734;28;20635;-83
2022/02/07 07:30:45;;;;;;;24.20;5.27;;;;;;;5.65;100.00;101570.50;4966626;28;20528;-85
2022/02/07 07:33:15;;;;;;;18.17;4.33;;;;;;;5.09;100.00;101471.22;4943734;28;20441;-85
2022/02/07 07:35:41;;;;;;;29.27;6.03;;;;;;;5.11;100.00;101493.16;4949283;28;20864;-80
2022/02/07 07:38:06;;;;;;;32.13;5.50;;;;;;;5.70;100.00;101596.63;4964385;28;20484;-83
2022/02/07 07:40:32;;;;;;;25.87;5.13;;;;;;;5.76;100.00;101582.75;4966394;28;20202;-84
2022/02/07 07:42:57;;;;;;;26.27;6.10;;;;;;;4.88;100.00;101462.63;4945954;28;20186;-85
2022/02/07 07:45:29;;;;;;;22.43;5.10;;;;;;;5.82;100.00;101609.63;4947224;28;20194;-83
2022/02/07 07:48:03;;;;;;;25.47;4.93;;;;;;;5.36;100.00;101512.09;4947935;28;21554;-83
2022/02/07 07:50:41;;;;;;;24.83;4.63;;;;;;;4.77;100.00;101423.78;4953337;28;20918;-88
2022/02/07 07:53:27;;;;;;;16.23;4.40;;;;;;;5.38;100.00;101508.31;4956129;28;20443;-82
2022/02/07 08:02:00;;;;;;;25.07;5.27;;;;;;;5.96;100.00;101626.97;4964711;28;20864;-88
2022/02/07 08:04:15;;;;;;;28.23;7.37;;;;;;;5.82;100.00;101611.44;4965181;28;20479;-88
2022/02/07 08:07:26;;;;;;;26.77;5.40;;;;;;;5.33;100.00;101546.97;4966721;28;20449;-84
2022/02/07 08:12:01;;;;;;;16.13;4.90;;;;;;;5.85;100.00;101648.44;4965946;28;20531;-85
2022/02/07 08:14:29;;;;;;;23.60;6.10;;;;;;;6.05;100.00;101681.97;4967158;28;21124;-83
2022/02/07 08:16:54;;;;;;;19.30;4.63;;;;;;;6.10;100.00;101692.19;4966302;28;21076;-81
2022/02/07 08:19:21;;;;;;;23.97;5.10;;;;;;;5.96;100.00;101658.06;4962896;28;20504;-85
2022/02/07 08:21:47;;;;;;;23.90;5.13;;;;;;;6.01;100.00;101669.09;4964488;28;20353;-83
2022/02/07 08:24:13;;;;;;;20.87;5.80;;;;;;;5.98;100.00;101680.88;4959635;28;20690;-82
2022/02/07 08:26:40;;;;;;;23.50;4.47;;;;;;;5.97;100.00;101694.38;4953828;28;20940;-83
2022/02/07 08:29:06;;;;;;;14.40;3.90;;;;;;;5.25;100.00;101566.31;4966025;28;20507;-82
2022/02/07 08:31:32;;;;;;;25.03;5.70;;;;;;;6.07;100.00;101695.97;4942942;28;20537;-85
2022/02/07 08:33:57;;;;;;;32.17;5.57;;;;;;;5.77;100.00;101635.84;4940286;28;20448;-82
2022/02/07 08:36:23;;;;;;;22.53;4.17;;;;;;;6.21;100.00;101705.28;4965309;28;20240;-84
2022/02/07 08:38:48;;;;;;;20.87;4.93;;;;;;;5.61;100.00;101635.63;4966505;28;20213;-84
2022/02/07 08:41:13;;;;;;;21.43;4.23;;;;;;;5.62;100.00;101622.19;4946181;28;20186;-85
2022/02/07 08:43:39;;;;;;;18.70;4.93;;;;;;;5.33;100.00;101601.03;4967206;28;20186;-81
2022/02/07 08:46:05;;;;;;;18.73;4.10;;;;;;;5.98;100.00;101696.03;4958319;28;20238;-83
2022/02/07 08:48:30;;;;;;;21.90;5.10;;;;;;;5.94;100.00;101719.47;4960777;28;20181;-84
2022/02/07 08:50:57;;;;;;;19.90;4.37;;;;;;;5.27;100.00;101609.59;4955006;28;20467;-80
2022/02/07 08:53:26;;;;;;;19.10;4.33;;;;;;;6.14;100.00;101754.84;4965464;28;20666;-82
2022/02/07 08:55:52;;;;;;;21.53;4.43;;;;;;;5.57;100.00;101631.59;4965505;28;20601;-80
2022/02/07 08:58:22;;;;;;;25.43;4.10;;;;;;;6.27;100.00;101751.81;4964328;28;20465;-85
2022/02/07 09:01:04;;;;;;;13.53;4.20;;;;;;;6.31;100.00;101783.34;4966938;28;20439;-80
2022/02/07 09:11:18;;;;;;;20.63;4.70;;;;;;;5.51;100.00;101641.00;4966613;28;20863;-82
2022/02/07 09:13:45;;;;;;;23.57;5.50;;;;;;;6.16;100.00;101736.84;4968036;28;20185;-81
2022/02/07 09:18:44;;;;;;;19.00;4.60;;;;;;;6.57;100.00;101796.81;4980202;22;20526;-72
2022/02/07 09:21:10;;;;;;;17.80;4.63;;;;;;;6.38;100.00;101756.13;4986051;28;20490;-72
2022/02/07 09:23:37;;;;;;;29.90;5.30;;;;;;;6.66;100.00;101827.09;4981842;28;20453;-72
2022/02/07 09:26:03;;;;;;;18.83;4.40;;;;;;;6.65;100.00;101833.38;4986155;28;20906;-72
2022/02/07 09:28:28;;;;;;;23.07;5.57;;;;;;;6.66;100.00;101842.25;4979581;28;20477;-71
2022/02/07 09:30:54;;;;;;;27.40;5.77;;;;;;;6.72;100.00;101850.47;4969978;28;21136;-72
2022/02/07 09:33:21;;;;;;;22.97;4.77;;;;;;;6.76;100.00;101851.03;4973566;28;20198;-72
2022/02/07 09:35:49;;;;;;;25.53;5.13;;;;;;;6.77;100.00;101852.72;4977494;28;20919;-72
2022/02/07 09:38:16;;;;;;;29.03;5.83;;;;;;;6.77;100.00;101842.88;4976004;28;20485;-71
2022/02/07 09:40:48;;;;;;;28.20;5.87;;;;;;;6.75;100.00;101844.84;4972699;28;20928;-72
2022/02/07 09:43:14;;;;;;;19.30;4.70;;;;;;;6.86;100.00;101850.97;4972500;28;21427;-72
2022/02/07 09:45:43;;;;;;;28.53;6.50;;;;;;;6.81;100.00;101864.75;4974639;28;20464;-71
2022/02/07 09:48:08;;;;;;;27.23;5.40;;;;;;;6.91;100.00;101873.53;4974958;28;20205;-71
2022/02/07 09:50:35;;;;;;;23.33;5.40;;;;;;;6.41;100.00;101827.78;4971451;28;20449;-71
2022/02/07 09:53:01;;;;;;;30.30;5.77;;;;;;;6.85;100.00;101897.28;4977420;28;20552;-72
2022/02/07 09:55:27;;;;;;;32.63;6.50;;;;;;;6.33;100.00;101791.19;4975156;28;20441;-72
2022/02/07 09:57:53;;;;;;;32.23;5.40;;;;;;;6.94;100.00;101907.94;4973000;28;20634;-72
2022/02/07 10:00:21;;;;;;;21.63;4.70;;;;;;;7.04;100.00;101899.03;4972844;28;20284;-71
2022/02/07 10:03:03;;;;;;;23.13;4.70;;;;;;;7.05;100.00;101898.03;4969193;28;20447;-71
2022/02/07 10:05:31;;;;;;;25.40;5.53;;;;;;;7.08;100.00;101909.22;4970816;28;20436;-71
2022/02/07 10:08:11;;;;;;;36.63;5.37;;;;;;;6.91;100.00;101880.69;4972433;28;20839;-72
2022/02/07 10:10:46;;;;;;;24.80;5.43;;;;;;;7.16;100.00;101911.16;4955861;28;20795;-71
2022/02/07 10:38:48;;;;;;;26.93;5.57;;;;;;;7.01;100.00;101910.81;4977181;28;21211;-73
2022/02/07 10:44:47;;;;;;;25.80;5.37;;;;;;;7.29;100.00;101935.66;4983017;28;20487;-69
2022/02/07 10:47:29;;;;;;;31.37;5.33;;;;;;;7.07;100.00;101962.75;4982500;28;20412;-70
2022/02/07 10:50:06;;;;;;;21.10;4.90;;;;;;;7.46;100.00;101969.53;4965076;28;20532;-70
2022/02/07 10:52:52;;;;;;;26.63;4.90;;;;;;;7.02;100.00;102037.88;4980685;28;20920;-69
2022/02/07 10:55:29;;;;;;;16.80;3.60;;;;;;;6.17;100.00;101973.00;4979784;28;20433;-72
2022/02/07 10:57:58;;;;;;;14.93;3.43;;;;;;;6.08;100.00;102030.63;4980619;28;20528;-70
2022/02/07 11:00:29;;;;;;;11.00;2.83;;;;;;;6.25;100.00;102044.19;4977128;28;20456;-69
2022/02/07 11:03:15;;;;;;;20.20;3.50;;;;;;;5.85;100.00;101973.25;4977786;28;20436;-70
2022/02/07 11:05:48;;;;;;;15.83;3.07;;;;;;;6.20;100.00;102004.66;4978810;28;20425;-73
2022/02/07 11:13:47;;;;;;;13.17;3.00;;;;;;;6.81;100.00;102022.09;4980261;28;20503;-72
2022/02/07 11:16:17;;;;;;;14.50;3.20;;;;;;;6.64;100.00;101980.19;4978120;28;20440;-71
2022/02/07 11:19:22;;;;;;;12.67;3.10;;;;;;;7.01;100.00;102002.38;4975262;28;20480;-71
2022/02/07 11:21:39;;;;;;;14.60;3.03;;;;;;;6.33;100.00;101925.28;4980259;28;20452;-72
2022/02/07 11:27:29;;;;;;;18.20;4.03;;;;;;;7.17;100.00;102019.56;4981652;28;20503;-71
2022/02/07 11:29:56;;;;;;;20.23;4.20;;;;;;;7.03;100.00;101978.22;4971023;28;20543;-73
2022/02/07 11:32:44;;;;;;;17.93;5.00;;;;;;;7.36;100.00;102026.63;4956678;28;20444;-72
2022/02/07 11:35:12;;;;;;;26.27;5.10;;;;;;;7.35;100.00;102033.81;4977501;28;20433;-73
2022/02/07 11:37:39;;;;;;;25.80;5.87;;;;;;;7.32;100.00;102036.78;4973923;28;20473;-71
2022/02/07 11:40:33;;;;;;;37.73;5.67;;;;;;;7.39;100.00;102051.19;4971320;28;20445;-71
2022/02/07 11:43:10;;;;;;;18.47;4.50;;;;;;;7.48;100.00;102065.50;4972658;28;20440;-71
2022/02/07 11:45:59;;;;;;;18.30;4.80;;;;;;;7.62;100.00;102042.78;4976882;28;20531;-71
2022/02/07 11:48:31;;;;;;;28.57;6.10;;;;;;;7.77;100.00;102054.63;4976250;28;20460;-72
2022/02/07 11:50:58;;;;;;;21.10;4.80;;;;;;;7.56;100.00;102051.41;4978130;28;20445;-73
2022/02/07 11:53:32;;;;;;;23.17;5.30;;;;;;;7.33;100.00;101990.41;4975054;28;21075;-72
2022/02/07 11:56:10;;;;;;;24.33;5.13;;;;;;;7.67;100.00;102061.88;4975042;28;20527;-72
2022/02/07 11:58:53;;;;;;;25.63;5.40;;;;;;;7.44;100.00;101984.88;4981084;28;20531;-73
2022/02/07 12:01:42;;;;;;;20.00;5.17;;;;;;;7.43;100.00;102023.25;4979771;28;20468;-72
2022/02/07 12:04:09;;;;;;;30.37;5.50;;;;;;;7.58;100.00;102068.09;4975732;28;20445;-72
2022/02/07 12:06:34;;;;;;;21.47;5.17;;;;;;;7.81;100.00;102064.03;4973206;28;20441;-72
2022/02/07 12:09:00;;;;;;;19.03;4.40;;;;;;;7.95;100.00;102065.34;4972179;28;20802;-71
2022/02/07 12:11:44;;;;;;;31.43;5.73;;;;;;;7.42;100.00;102042.91;4974236;28;20332;-72
2022/02/07 12:14:33;;;;;;;23.17;4.57;;;;;;;7.82;100.00;102075.56;4971037;28;20444;-72
2022/02/07 12:17:00;;;;;;;20.47;5.33;;;;;;;8.23;100.00;102082.16;4969571;28;21464;-71
2022/02/07 12:19:38;;;;;;;28.63;5.27;;;;;;;7.43;100.00;102046.41;4959452;28;20578;-71
2022/02/07 12:22:18;;;;;;;25.13;5.00;;;;;;;7.42;100.00;102082.94;4970081;28;20445;-70
2022/02/07 12:24:58;;;;;;;27.73;5.10;;;;;;;7.18;100.00;102080.78;4967762;28;20428;-71
2022/02/07 12:27:28;;;;;;;19.50;5.23;;;;;;;7.08;100.00;102095.16;4967006;28;20500;-71
2022/02/07 12:32:36;;;;;;;14.40;4.20;;;;;;;7.72;100.00;102059.56;4971387;28;20935;-71
2022/02/07 12:35:03;;;;;;;21.80;4.40;;;;;;;7.76;100.00;102054.81;4965075;28;20448;-70
2022/02/07 12:37:34;;;;;;;24.90;4.60;;;;;;;7.73;100.00;102002.53;4964224;28;20211;-72
2022/02/07 12:40:04;;;;;;;25.40;4.97;;;;;;;8.02;100.00;102026.34;4959085;28;20445;-72
2022/02/07 12:42:30;;;;;;;28.73;5.37;;;;;;;8.10;100.00;102030.91;4967340;28;20437;-71
2022/02/07 12:45:00;;;;;;;18.87;5.00;;;;;;;8.51;100.00;102084.78;4969023;28;20464;-72
2022/02/07 12:47:25;;;;;;;18.13;4.10;;;;;;;8.43;100.00;102098.06;4973106;28;20765;-72
2022/02/07 12:49:54;;;;;;;29.07;5.00;;;;;;;7.51;100.00;101965.56;4974632;28;20551;-72
2022/02/07 12:52:20;;;;;;;30.73;4.80;;;;;;;8.25;100.00;102063.31;4967469;28;20191;-72
2022/02/07 12:54:46;;;;;;;22.07;3.90;;;;;;;8.42;100.00;102109.75;4961881;28;20492;-72
2022/02/07 12:57:13;;;;;;;22.40;5.20;;;;;;;7.94;100.00;102061.00;4972665;28;20193;-72
2022/02/07 12:59:49;;;;;;;23.17;4.80;;;;;;;8.04;100.00;102026.16;4971703;28;20241;-72
2022/02/07 13:02:15;;;;;;;23.73;4.40;;;;;;;8.44;100.00;102111.28;4971576;28;20943;-71
2022/02/07 13:04:42;;;;;;;24.37;4.73;;;;;;;8.67;100.00;102125.00;4972115;28;20448;-71
2022/02/07 13:07:08;;;;;;;18.63;4.57;;;;;;;8.53;100.00;102131.75;4973478;28;20201;-72
2022/02/07 13:09:43;;;;;;;22.40;4.57;;;;;;;8.91;100.00;102142.25;4967701;28;21481;-71
2022/02/07 13:14:41;;;;;;;27.60;5.10;;;;;;;8.78;100.00;102162.22;4969518;28;20473;-72
2022/02/07 13:17:07;;;;;;;23.77;4.60;;;;;;;8.70;100.00;102158.63;4966206;28;21048;-71
2022/02/07 13:19:37;;;;;;;14.20;3.90;;;;;;;9.05;100.00;102171.13;4966643;28;20884;-72
2022/02/07 13:22:03;;;;;;;19.07;4.50;;;;;;;8.20;100.00;102129.72;4968579;28;20516;-71
2022/02/07 13:24:32;;;;;;;21.77;4.50;;;;;;;8.10;100.00;102145.81;4968472;28;20460;-71
2022/02/07 13:27:00;;;;;;;22.97;4.30;;;;;;;7.28;100.00;102083.41;4970828;28;20190;-71
2022/02/07 13:29:35;;;;;;;23.03;4.70;;;;;;;7.50;100.00;102167.63;4968209;28;20590;-71
2022/02/07 13:32:04;;;;;;;27.73;4.93;;;;;;;7.50;100.00;102181.00;4967886;28;21009;-71
2022/02/07 13:34:31;;;;;;;17.13;3.10;;;;;;;7.77;100.00;102084.00;4972397;28;20448;-71
2022/02/07 13:37:26;;;;;;;23.80;3.97;;;;;;;8.63;100.00;102187.00;4974501;28;20443;-71
2022/02/07 13:40:05;;;;;;;17.10;4.10;;;;;;;7.70;100.00;102157.72;4977768;28;20567;-71
2022/02/07 13:42:34;;;;;;;17.03;4.33;;;;;;;7.57;100.00;102197.25;4965196;28;20448;-71
2022/02/07 13:45:24;;;;;;;16.30;3.97;;;;;;;7.82;100.00;102201.13;4973812;28;20817;-71
2022/02/07 13:47:52;;;;;;;22.90;4.17;;;;;;;8.38;100.00;102202.75;4973042;28;20440;-71
2022/02/07 13:50:27;;;;;;;24.53;4.83;;;;;;;8.47;100.00;102199.19;4974054;28;20531;-71
2022/02/07 13:52:55;;;;;;;14.90;3.77;;;;;;;8.52;100.00;102139.94;4968387;28;20527;-71
2022/02/07 13:55:35;;;;;;;16.83;4.50;;;;;;;8.00;100.00;102195.81;4947048;28;20440;-71